Time;durP1;ratioP1;P1;durP2;ratioP2;P2;SDS_P1;SDS_P2;PMS_P1;PMS_P2;Temp;Humidity;BMP_temperature;BMP_pressure;BME280_temperature;BME280_humidity;BME280_pressure;Samples;Min_cycle;Max_cycle;Signal;HPM_P1;HPM_P2
2021/06/20 00:01:35;;;;;;;4.13;3.83;;;24.20;62.40;;;;;;5013189;28;20026;-47
2021/06/20 00:04:01;;;;;;;3.45;3.25;;;24.20;62.40;;;;;;5013190;28;20033;-48
2021/06/20 00:06:35;;;;;;;3.95;3.50;;;24.20;62.40;;;;;;5012971;28;20425;-49
2021/06/20 00:09:05;;;;;;;4.00;3.70;;;24.10;62.40;;;;;;5013281;28;20033;-50
2021/06/20 00:11:31;;;;;;;4.35;3.92;;;24.10;62.40;;;;;;5013256;28;20060;-47
2021/06/20 00:13:57;;;;;;;4.30;3.95;;;24.10;62.50;;;;;;5013094;28;20026;-47
2021/06/20 00:16:23;;;;;;;4.13;3.75;;;24.10;62.50;;;;;;5013126;28;20037;-47
2021/06/20 00:18:49;;;;;;;4.30;3.90;;;24.20;62.50;;;;;;5013218;28;20022;-48
2021/06/20 00:21:16;;;;;;;3.97;3.63;;;24.20;62.50;;;;;;5015509;28;20047;-48
2021/06/20 00:23:42;;;;;;;4.78;3.70;;;24.50;62.80;;;;;;5016765;28;20072;-48
2021/06/20 00:26:08;;;;;;;4.22;3.70;;;24.10;62.50;;;;;;5017013;28;20030;-49
2021/06/20 00:28:33;;;;;;;3.88;3.35;;;24.10;62.50;;;;;;5017002;28;20473;-48
2021/06/20 00:30:59;;;;;;;3.20;2.92;;;24.40;62.70;;;;;;5016680;28;20029;-48
2021/06/20 00:33:25;;;;;;;3.67;3.38;;;24.10;62.50;;;;;;5016920;28;20108;-47
2021/06/20 00:35:50;;;;;;;4.15;3.70;;;24.40;62.80;;;;;;5016558;28;20026;-47
2021/06/20 00:38:16;;;;;;;4.00;3.65;;;24.00;62.50;;;;;;5016474;28;20057;-47
2021/06/20 00:40:42;;;;;;;4.10;3.40;;;24.10;62.60;;;;;;5016754;28;20022;-49
2021/06/20 00:43:07;;;;;;;3.75;3.35;;;24.10;62.60;;;;;;5016332;28;20102;-49
2021/06/20 00:45:33;;;;;;;3.38;3.08;;;24.00;62.60;;;;;;5016673;28;20049;-48
2021/06/20 00:47:59;;;;;;;3.42;3.22;;;24.10;62.60;;;;;;5016359;28;20022;-47
2021/06/20 00:50:26;;;;;;;3.80;3.38;;;24.10;62.70;;;;;;5016303;28;20542;-47
2021/06/20 00:52:55;;;;;;;3.40;3.10;;;24.10;62.70;;;;;;5016415;28;20018;-48
2021/06/20 00:55:21;;;;;;;3.42;3.13;;;24.10;62.60;;;;;;5016456;28;20038;-49
2021/06/20 00:57:47;;;;;;;4.88;3.55;;;24.10;62.70;;;;;;5016221;28;20020;-49
2021/06/20 01:00:13;;;;;;;3.45;2.95;;;24.10;62.70;;;;;;5016219;28;20022;-48
2021/06/20 01:02:39;;;;;;;4.00;3.60;;;24.00;62.60;;;;;;5016331;28;20018;-49
2021/06/20 01:05:07;;;;;;;3.72;3.33;;;24.50;62.90;;;;;;5015914;28;20056;-47
2021/06/20 01:07:33;;;;;;;3.95;3.63;;;24.10;62.70;;;;;;5015846;28;20018;-48
2021/06/20 01:09:59;;;;;;;4.70;3.55;;;23.80;63.20;;;;;;5016216;28;20377;-50
2021/06/20 01:12:25;;;;;;;2.92;2.72;;;24.10;62.70;;;;;;5016060;28;20014;-46
2021/06/20 01:14:51;;;;;;;3.50;3.20;;;24.00;62.70;;;;;;5016074;28;20103;-47
2021/06/20 01:17:19;;;;;;;3.17;2.97;;;23.90;62.60;;;;;;5016107;28;20461;-47
2021/06/20 01:19:45;;;;;;;4.68;3.55;;;23.90;62.60;;;;;;5016057;28;20094;-48
2021/06/20 01:22:26;;;;;;;3.25;2.97;;;24.10;62.90;;;;;;5016001;28;20101;-47
2021/06/20 01:24:57;;;;;;;3.15;2.92;;;24.10;62.80;;;;;;5014481;28;20041;-48
2021/06/20 01:27:32;;;;;;;3.10;2.90;;;24.00;62.80;;;;;;5015799;28;20101;-48
2021/06/20 01:29:58;;;;;;;2.72;2.60;;;24.00;62.80;;;;;;5015649;28;20564;-50
2021/06/20 01:32:24;;;;;;;3.10;2.90;;;24.00;62.80;;;;;;5015468;28;20110;-48
2021/06/20 01:34:49;;;;;;;3.40;3.13;;;23.70;62.60;;;;;;5015125;28;20054;-48
2021/06/20 01:37:17;;;;;;;3.17;2.97;;;24.00;62.80;;;;;;5015619;28;20030;-48
2021/06/20 01:39:43;;;;;;;2.80;2.60;;;24.30;63.00;;;;;;5015349;28;20060;-48
2021/06/20 01:42:13;;;;;;;3.72;2.60;;;23.80;63.40;;;;;;5015355;28;20022;-49
2021/06/20 01:44:53;;;;;;;2.60;2.40;;;24.00;62.80;;;;;;5014085;28;20026;-47
2021/06/20 01:47:22;;;;;;;2.75;2.55;;;24.00;62.80;;;;;;5015514;28;20103;-50
2021/06/20 01:49:48;;;;;;;3.03;2.72;;;24.10;62.80;;;;;;5014916;28;20026;-49
2021/06/20 01:52:21;;;;;;;2.75;2.55;;;23.80;62.70;;;;;;5015059;28;20080;-48
2021/06/20 01:54:53;;;;;;;2.80;2.60;;;23.80;62.70;;;;;;5015059;28;20038;-49
2021/06/20 01:57:30;;;;;;;2.45;2.35;;;24.10;62.80;;;;;;5015075;28;20018;-48
2021/06/20 01:59:58;;;;;;;2.75;2.47;;;24.00;62.80;;;;;;5014076;28;20030;-49
2021/06/20 02:02:25;;;;;;;3.83;2.22;;;23.60;81.00;;;;;;5014832;28;20022;-49
2021/06/20 02:04:52;;;;;;;3.58;2.38;;;23.90;62.70;;;;;;5014786;28;20108;-48
2021/06/20 02:07:18;;;;;;;2.55;2.03;;;24.20;62.80;;;;;;5014802;28;20029;-49
2021/06/20 02:09:45;;;;;;;2.05;1.90;;;23.90;62.70;;;;;;5015107;28;20037;-49
2021/06/20 02:12:12;;;;;;;2.13;2.00;;;23.80;62.60;;;;;;5015057;28;20018;-48
2021/06/20 02:14:38;;;;;;;2.08;1.92;;;23.90;62.70;;;;;;5014406;28;20022;-49
2021/06/20 02:17:25;;;;;;;2.10;2.00;;;23.90;62.70;;;;;;5014673;28;20073;-47
2021/06/20 02:19:53;;;;;;;2.10;2.00;;;23.90;62.80;;;;;;5007936;28;20183;-47
2021/06/20 02:22:20;;;;;;;2.42;2.22;;;23.90;62.70;;;;;;5014718;28;20022;-48
2021/06/20 02:24:46;;;;;;;2.42;2.22;;;23.80;62.60;;;;;;5014786;28;20109;-49
2021/06/20 02:27:12;;;;;;;1.90;1.80;;;23.90;62.70;;;;;;5014830;28;20025;-48
2021/06/20 02:29:40;;;;;;;1.75;1.65;;;23.90;62.60;;;;;;5014501;28;20022;-47
2021/06/20 02:32:06;;;;;;;1.75;1.65;;;23.80;62.60;;;;;;5014573;28;20026;-50
2021/06/20 02:34:32;;;;;;;1.85;1.75;;;23.90;62.60;;;;;;5014269;28;20416;-49
2021/06/20 02:36:58;;;;;;;1.77;1.67;;;23.90;62.60;;;;;;5014611;28;20376;-48
2021/06/20 02:39:23;;;;;;;1.60;1.50;;;23.90;62.60;;;;;;5014295;28;20021;-48
2021/06/20 02:41:50;;;;;;;1.70;1.60;;;23.70;62.50;;;;;;5014459;28;20109;-48
2021/06/20 02:44:17;;;;;;;1.38;1.27;;;23.90;62.60;;;;;;5013986;28;20053;-48
2021/06/20 02:46:43;;;;;;;1.83;1.73;;;23.90;62.60;;;;;;5014007;28;20026;-48
2021/06/20 02:49:09;;;;;;;1.60;1.50;;;23.80;62.60;;;;;;5012878;28;20125;-49
2021/06/20 02:51:35;;;;;;;1.38;1.27;;;23.80;62.60;;;;;;5013908;28;20504;-48
2021/06/20 02:54:02;;;;;;;1.52;1.42;;;23.80;62.50;;;;;;5014213;28;20026;-51
2021/06/20 02:56:27;;;;;;;1.35;1.25;;;24.00;62.60;;;;;;5013770;28;20036;-48
2021/06/20 02:58:53;;;;;;;1.67;1.58;;;24.10;62.70;;;;;;5013905;28;20022;-48
2021/06/20 03:01:18;;;;;;;1.50;1.40;;;23.80;62.50;;;;;;5014207;28;20026;-48
2021/06/20 03:03:44;;;;;;;1.30;1.20;;;23.80;62.50;;;;;;5014105;28;20032;-48
2021/06/20 03:06:11;;;;;;;1.30;1.27;;;23.80;62.50;;;;;;5012488;28;20057;-47
2021/06/20 03:08:36;;;;;;;1.40;1.27;;;23.80;62.50;;;;;;5013769;28;20026;-48
2021/06/20 03:11:02;;;;;;;1.40;1.30;;;23.60;62.40;;;;;;5014060;28;20028;-51
2021/06/20 03:13:28;;;;;;;1.10;1.00;;;23.90;62.50;;;;;;5013879;28;20453;-49
2021/06/20 03:15:54;;;;;;;1.17;1.08;;;23.80;62.50;;;;;;5012404;28;20030;-48
2021/06/20 03:18:20;;;;;;;1.35;1.05;;;23.80;62.50;;;;;;5013898;28;20068;-48
2021/06/20 03:20:45;;;;;;;0.90;0.90;;;23.80;62.50;;;;;;5013855;28;20524;-47
2021/06/20 03:23:11;;;;;;;0.98;0.90;;;23.80;62.50;;;;;;5013816;28;20088;-48
2021/06/20 03:25:38;;;;;;;1.30;1.15;;;23.80;62.50;;;;;;5013692;28;20025;-49
2021/06/20 03:28:05;;;;;;;1.38;1.10;;;23.60;62.40;;;;;;5013465;28;20197;-49
2021/06/20 03:30:30;;;;;;;1.00;1.00;;;23.80;62.60;;;;;;5013582;28;20073;-49
2021/06/20 03:32:56;;;;;;;1.73;1.15;;;23.80;62.50;;;;;;5013602;28;20080;-49
2021/06/20 03:35:22;;;;;;;1.13;1.10;;;23.80;62.50;;;;;;5013476;28;20026;-49
2021/06/20 03:37:47;;;;;;;1.60;1.00;;;23.80;62.60;;;;;;5013539;28;20025;-48
2021/06/20 03:40:13;;;;;;;0.80;0.80;;;23.70;62.50;;;;;;5013559;28;20030;-48
2021/06/20 03:42:39;;;;;;;0.98;0.85;;;23.70;62.50;;;;;;5013369;28;20018;-47
2021/06/20 03:45:08;;;;;;;0.90;0.88;;;23.50;62.40;;;;;;5013428;28;20647;-49
2021/06/20 03:47:34;;;;;;;0.70;0.70;;;23.70;62.50;;;;;;5013382;28;20025;-47
2021/06/20 03:50:00;;;;;;;0.70;0.70;;;24.00;62.70;;;;;;5013385;28;20022;-47
2021/06/20 03:52:26;;;;;;;0.90;0.90;;;23.70;62.50;;;;;;5012952;28;20476;-48
2021/06/20 03:54:52;;;;;;;0.98;0.80;;;23.70;62.50;;;;;;5012286;28;20037;-49
2021/06/20 03:57:21;;;;;;;0.90;0.90;;;23.90;62.60;;;;;;5013269;28;20029;-49
2021/06/20 03:59:47;;;;;;;0.82;0.82;;;23.60;62.50;;;;;;5012986;28;20481;-47
2021/06/20 04:02:13;;;;;;;0.70;0.70;;;23.70;62.50;;;;;;5012952;28;20018;-49
2021/06/20 04:04:39;;;;;;;0.75;0.75;;;23.80;62.60;;;;;;5012506;28;20092;-48
2021/06/20 04:07:11;;;;;;;0.90;0.90;;;23.90;62.60;;;;;;5013147;28;20624;-47
2021/06/20 04:09:38;;;;;;;0.60;0.60;;;23.70;62.60;;;;;;5013270;28;20101;-47
2021/06/20 04:12:04;;;;;;;0.70;0.70;;;23.70;62.50;;;;;;5012987;28;20022;-47
2021/06/20 04:14:30;;;;;;;1.15;0.73;;;23.70;62.60;;;;;;5013071;28;20040;-48
2021/06/20 04:16:56;;;;;;;0.88;0.88;;;23.60;62.50;;;;;;5013142;28;20472;-48
2021/06/20 04:19:22;;;;;;;0.88;0.80;;;23.70;62.50;;;;;;5013162;28;20042;-48
2021/06/20 04:21:47;;;;;;;0.75;0.70;;;23.50;62.40;;;;;;5012620;28;20026;-49
2021/06/20 04:24:13;;;;;;;1.10;0.73;;;23.50;62.50;;;;;;5012746;28;20050;-47
2021/06/20 04:26:41;;;;;;;0.73;0.73;;;23.70;62.60;;;;;;5012674;28;20029;-48
2021/06/20 04:29:07;;;;;;;0.70;0.70;;;23.70;62.60;;;;;;5012659;28;20504;-49
2021/06/20 04:31:33;;;;;;;0.60;0.60;;;23.70;62.60;;;;;;5012938;28;20030;-48
2021/06/20 04:33:58;;;;;;;0.60;0.60;;;23.70;62.60;;;;;;5012456;28;20503;-49
2021/06/20 04:36:24;;;;;;;1.40;0.80;;;23.60;62.60;;;;;;5012660;28;20026;-49
2021/06/20 04:38:49;;;;;;;0.52;0.52;;;23.70;62.60;;;;;;5012930;28;20026;-49
2021/06/20 04:41:17;;;;;;;0.70;0.70;;;23.70;62.60;;;;;;5012812;28;20030;-50
2021/06/20 04:46:29;;;;;;;0.68;0.52;;;23.60;62.50;;;;;;5011726;28;20116;-51
2021/06/20 04:49:14;;;;;;;0.70;0.70;;;23.60;62.50;;;;;;5012546;28;20018;-47
2021/06/20 04:51:41;;;;;;;0.50;0.50;;;23.60;62.50;;;;;;5011244;28;20026;-49
2021/06/20 04:54:08;;;;;;;0.63;0.63;;;23.60;62.50;;;;;;5012723;28;20113;-49
2021/06/20 04:56:34;;;;;;;0.50;0.50;;;23.70;63.20;;;;;;5012431;28;20555;-48
2021/06/20 04:59:00;;;;;;;0.68;0.52;;;23.70;62.60;;;;;;5012375;28;20033;-47
2021/06/20 05:01:26;;;;;;;0.50;0.50;;;23.60;62.50;;;;;;5012283;28;20073;-49
2021/06/20 05:03:53;;;;;;;0.68;0.50;;;23.60;62.60;;;;;;5012716;28;20038;-49
2021/06/20 05:06:18;;;;;;;0.60;0.60;;;23.60;62.60;;;;;;5012913;28;20069;-47
2021/06/20 05:08:44;;;;;;;0.60;0.57;;;23.60;62.60;;;;;;5015917;28;20064;-52
2021/06/20 05:11:10;;;;;;;0.55;0.40;;;23.50;62.50;;;;;;5016038;28;20080;-48
2021/06/20 05:13:36;;;;;;;0.40;0.40;;;23.60;62.50;;;;;;5015922;28;20026;-48
2021/06/20 05:16:02;;;;;;;0.52;0.52;;;23.60;62.60;;;;;;5016113;28;20440;-51
2021/06/20 05:18:27;;;;;;;0.88;0.60;;;23.60;62.60;;;;;;5015640;28;20428;-49
2021/06/20 05:20:53;;;;;;;0.32;0.30;;;23.50;62.50;;;;;;5015631;28;20037;-48
2021/06/20 05:23:19;;;;;;;0.60;0.60;;;23.50;62.50;;;;;;5015763;28;20026;-48
2021/06/20 05:25:44;;;;;;;0.40;0.40;;;23.60;80.50;;;;;;5015949;28;20140;-51
2021/06/20 05:28:10;;;;;;;0.45;0.40;;;23.60;62.60;;;;;;5015678;28;20025;-49
2021/06/20 05:30:36;;;;;;;0.45;0.45;;;23.60;62.60;;;;;;5015638;28;20026;-49
2021/06/20 05:33:01;;;;;;;0.40;0.38;;;23.40;62.50;;;;;;5015788;28;20033;-50
2021/06/20 05:35:27;;;;;;;0.63;0.38;;;23.90;62.80;;;;;;5015686;28;20485;-50
2021/06/20 05:37:53;;;;;;;0.40;0.40;;;23.60;62.70;;;;;;5015719;28;20079;-52
2021/06/20 05:40:18;;;;;;;0.43;0.43;;;23.70;62.70;;;;;;5015426;28;20022;-48
2021/06/20 05:42:44;;;;;;;0.52;0.50;;;23.60;62.70;;;;;;5015591;28;20030;-48
2021/06/20 05:45:11;;;;;;;0.50;0.30;;;23.70;62.70;;;;;;5015497;28;20043;-50
2021/06/20 05:47:36;;;;;;;0.40;0.40;;;23.60;62.60;;;;;;5015500;28;20381;-49
2021/06/20 05:50:03;;;;;;;1.50;0.50;;;23.40;62.50;;;;;;5015495;28;20014;-48
2021/06/20 05:52:28;;;;;;;0.45;0.43;;;23.60;62.60;;;;;;5015080;28;20543;-49
2021/06/20 05:54:54;;;;;;;0.50;0.40;;;23.40;62.50;;;;;;5015017;28;20116;-49
2021/06/20 05:57:21;;;;;;;0.60;0.40;;;23.60;62.60;;;;;;5015094;28;20049;-49
2021/06/20 05:59:47;;;;;;;0.30;0.30;;;23.60;62.60;;;;;;5015055;28;20030;-49
2021/06/20 06:02:13;;;;;;;0.47;0.32;;;23.60;62.70;;;;;;5014921;28;20050;-50
2021/06/20 06:04:41;;;;;;;0.73;0.40;;;23.40;62.50;;;;;;5014924;28;20038;-53
2021/06/20 06:07:07;;;;;;;0.50;0.30;;;23.60;62.70;;;;;;5014990;28;20054;-49
2021/06/20 06:09:32;;;;;;;0.40;0.40;;;23.70;62.80;;;;;;5015120;28;20037;-48
2021/06/20 06:11:58;;;;;;;0.63;0.40;;;23.60;62.70;;;;;;5014878;28;20108;-49
2021/06/20 06:14:24;;;;;;;0.98;0.40;;;23.60;62.50;;;;;;5014758;28;20569;-49
2021/06/20 06:16:50;;;;;;;0.50;0.40;;;23.70;80.60;;;;;;5014880;28;20105;-52
2021/06/20 06:19:17;;;;;;;0.80;0.50;;;23.90;62.70;;;;;;5013784;28;20022;-52
2021/06/20 06:21:43;;;;;;;0.40;0.40;;;23.60;62.60;;;;;;5014927;28;20030;-49
2021/06/20 06:24:10;;;;;;;0.28;0.28;;;23.60;62.70;;;;;;5014509;28;20104;-51
2021/06/20 06:26:36;;;;;;;0.50;0.45;;;23.60;62.70;;;;;;5014564;28;20114;-49
2021/06/20 06:29:02;;;;;;;0.30;0.30;;;23.70;62.70;;;;;;5014480;28;20018;-55
2021/06/20 06:31:27;;;;;;;1.38;0.30;;;23.60;62.70;;;;;;5014778;28;20021;-55
2021/06/20 06:33:53;;;;;;;3.20;0.30;;;23.60;62.50;;;;;;5014270;28;20168;-54
2021/06/20 06:36:19;;;;;;;1.65;0.30;;;23.60;62.80;;;;;;5014682;28;20087;-51
2021/06/20 06:38:45;;;;;;;3.63;0.30;;;23.60;62.90;;;;;;5014245;28;20018;-55
2021/06/20 06:41:12;;;;;;;3.72;0.38;;;23.80;63.00;;;;;;5014381;28;20044;-54
2021/06/20 06:43:37;;;;;;;0.20;0.20;;;23.40;62.90;;;;;;5014466;28;20033;-54
2021/06/20 06:46:03;;;;;;;1.17;0.43;;;23.70;63.10;;;;;;5014262;28;20022;-54
2021/06/20 06:48:29;;;;;;;1.10;0.40;;;23.60;63.00;;;;;;5014429;28;20018;-54
2021/06/20 06:50:54;;;;;;;1.85;0.40;;;23.60;62.90;;;;;;5014336;28;20485;-53
2021/06/20 06:53:20;;;;;;;2.08;0.40;;;23.60;63.00;;;;;;5013986;28;20381;-54
2021/06/20 06:55:45;;;;;;;2.47;0.43;;;23.50;63.00;;;;;;5014177;28;20038;-53
2021/06/20 06:58:11;;;;;;;0.40;0.40;;;23.60;63.10;;;;;;5014127;28;20476;-54
2021/06/20 07:00:37;;;;;;;2.08;0.40;;;23.70;63.20;;;;;;5014070;28;20068;-53
2021/06/20 07:03:02;;;;;;;0.93;0.40;;;23.40;63.20;;;;;;5014057;28;20152;-53
2021/06/20 07:05:28;;;;;;;3.50;0.70;;;23.80;63.40;;;;;;5012426;28;20046;-54
2021/06/20 07:07:54;;;;;;;3.08;0.60;;;23.60;63.40;;;;;;5013871;28;20441;-53
2021/06/20 07:10:21;;;;;;;0.93;0.45;;;24.00;63.70;;;;;;5012836;28;20030;-51
2021/06/20 07:12:47;;;;;;;0.40;0.40;;;23.60;63.50;;;;;;5013680;28;20519;-55
2021/06/20 07:15:13;;;;;;;2.28;0.32;;;23.70;63.50;;;;;;5013931;28;20030;-55
2021/06/20 07:17:38;;;;;;;2.13;0.30;;;23.60;63.50;;;;;;5013865;28;20022;-51
2021/06/20 07:20:07;;;;;;;0.85;0.30;;;23.60;63.50;;;;;;5013489;28;20362;-51
2021/06/20 07:22:33;;;;;;;0.40;0.40;;;23.70;63.60;;;;;;5013754;28;20023;-53
2021/06/20 07:24:59;;;;;;;1.20;0.40;;;23.70;63.70;;;;;;5013417;28;20484;-54
2021/06/20 07:27:24;;;;;;;0.40;0.35;;;23.60;63.70;;;;;;5013346;28;20030;-54
2021/06/20 07:29:50;;;;;;;0.30;0.30;;;23.90;63.80;;;;;;5013639;28;20391;-53
2021/06/20 07:32:16;;;;;;;1.33;0.68;;;23.50;63.50;;;;;;5013699;28;20018;-53
2021/06/20 07:34:42;;;;;;;0.47;0.43;;;23.50;63.30;;;;;;5013597;28;20534;-52
2021/06/20 07:37:07;;;;;;;2.20;0.65;;;23.70;63.10;;;;;;5013553;28;20068;-53
2021/06/20 07:39:33;;;;;;;0.45;0.30;;;23.60;63.20;;;;;;5013104;28;20382;-52
2021/06/20 07:42:01;;;;;;;1.30;0.80;;;23.60;63.20;;;;;;5013522;28;20033;-54
2021/06/20 07:44:27;;;;;;;0.57;0.47;;;23.60;63.40;;;;;;5013464;28;20014;-54
2021/06/20 07:46:53;;;;;;;0.50;0.50;;;23.60;63.40;;;;;;5013425;28;20048;-54
2021/06/20 07:49:18;;;;;;;0.82;0.60;;;23.60;63.50;;;;;;5013173;28;20026;-53
2021/06/20 07:51:44;;;;;;;2.92;0.85;;;24.00;64.40;;;;;;5013166;28;20037;-54
2021/06/20 07:54:10;;;;;;;1.42;0.73;;;23.60;63.50;;;;;;5013065;28;20424;-54
2021/06/20 07:56:36;;;;;;;0.57;0.50;;;23.60;63.60;;;;;;5013342;28;20469;-51
2021/06/20 07:59:01;;;;;;;0.65;0.65;;;23.60;63.50;;;;;;5013072;28;20108;-53
2021/06/20 08:01:28;;;;;;;1.25;0.60;;;23.60;63.20;;;;;;5012085;28;20026;-54
2021/06/20 08:03:54;;;;;;;0.60;0.60;;;23.60;63.20;;;;;;5013037;28;20028;-53
2021/06/20 08:06:20;;;;;;;1.42;0.70;;;23.60;63.40;;;;;;5012693;28;20144;-53
2021/06/20 08:08:46;;;;;;;0.80;0.68;;;23.60;63.50;;;;;;5012961;28;20034;-52
2021/06/20 08:11:12;;;;;;;1.13;0.50;;;23.50;63.50;;;;;;5011709;28;20034;-53
2021/06/20 08:13:37;;;;;;;1.77;0.60;;;23.60;63.30;;;;;;5013062;28;20084;-54
2021/06/20 08:16:04;;;;;;;3.00;0.55;;;23.50;63.20;;;;;;5012729;28;20095;-54
2021/06/20 08:18:30;;;;;;;0.55;0.52;;;23.60;63.30;;;;;;5012789;28;20485;-54
2021/06/20 08:20:56;;;;;;;1.23;0.50;;;23.60;63.20;;;;;;5013008;28;20040;-53
2021/06/20 08:23:22;;;;;;;1.88;0.50;;;23.60;63.30;;;;;;5012923;28;20018;-54
2021/06/20 08:25:47;;;;;;;0.50;0.50;;;23.90;63.30;;;;;;5011508;28;20022;-54
2021/06/20 08:28:13;;;;;;;1.02;0.52;;;23.70;63.20;;;;;;5012941;28;20018;-54
2021/06/20 08:30:39;;;;;;;0.50;0.50;;;23.40;62.90;;;;;;5012721;28;20026;-50
2021/06/20 08:33:04;;;;;;;1.05;0.68;;;23.60;63.10;;;;;;5012601;28;20041;-50
2021/06/20 08:35:30;;;;;;;0.60;0.60;;;23.70;63.00;;;;;;5012941;28;20057;-54
2021/06/20 08:37:55;;;;;;;1.52;0.52;;;23.70;63.10;;;;;;5012888;28;20072;-50
2021/06/20 08:40:21;;;;;;;1.52;0.75;;;24.90;82.40;;;;;;5012489;28;20049;-54
2021/06/20 08:42:47;;;;;;;1.27;0.82;;;23.70;63.80;;;;;;5015847;28;20022;-53
2021/06/20 08:45:14;;;;;;;0.95;0.88;;;23.70;63.80;;;;;;5015296;28;20034;-54
2021/06/20 08:47:41;;;;;;;2.80;1.00;;;23.70;63.80;;;;;;5016678;28;20050;-54
2021/06/20 08:50:07;;;;;;;1.45;1.00;;;23.80;63.80;;;;;;5016399;28;20022;-54
2021/06/20 08:52:33;;;;;;;1.27;1.17;;;23.80;63.60;;;;;;5016536;28;20109;-54
2021/06/20 08:55:06;;;;;;;1.95;1.33;;;23.90;63.70;;;;;;5016281;28;20121;-54
2021/06/20 08:57:35;;;;;;;1.52;1.10;;;23.80;63.50;;;;;;5016197;28;20465;-55
2021/06/20 09:00:01;;;;;;;1.00;1.00;;;23.80;63.50;;;;;;5016304;28;20116;-52
2021/06/20 09:02:28;;;;;;;3.17;1.42;;;23.70;63.50;;;;;;5016106;28;20277;-53
2021/06/20 09:04:59;;;;;;;1.83;1.00;;;23.80;63.40;;;;;;5015937;28;20081;-51
2021/06/20 09:07:40;;;;;;;2.28;1.48;;;23.80;63.40;;;;;;5016047;28;20018;-54
2021/06/20 09:10:09;;;;;;;2.10;1.48;;;23.80;63.20;;;;;;5016097;28;20057;-52
2021/06/20 09:12:48;;;;;;;2.72;1.70;;;23.80;63.10;;;;;;5016215;28;20075;-54
2021/06/20 09:15:17;;;;;;;2.97;1.67;;;23.80;63.00;;;;;;5016379;28;20445;-52
2021/06/20 09:17:48;;;;;;;2.40;1.63;;;23.90;63.10;;;;;;5016112;28;20025;-53
2021/06/20 09:20:14;;;;;;;2.55;2.35;;;23.90;63.00;;;;;;5015779;28;20152;-54
2021/06/20 09:22:39;;;;;;;5.45;2.50;;;23.80;62.90;;;;;;5014918;28;20109;-54
2021/06/20 09:25:05;;;;;;;3.78;2.75;;;23.70;62.80;;;;;;5015705;28;20021;-50
2021/06/20 09:27:31;;;;;;;4.13;2.55;;;23.90;62.90;;;;;;5015944;28;20037;-53
2021/06/20 09:30:10;;;;;;;3.97;3.22;;;24.10;63.00;;;;;;5015838;28;20026;-53
2021/06/20 09:32:38;;;;;;;6.50;3.70;;;23.90;63.00;;;;;;5014426;28;20093;-51
2021/06/20 09:35:04;;;;;;;5.72;4.03;;;23.80;62.90;;;;;;5015732;28;20092;-53
2021/06/20 09:37:30;;;;;;;10.43;6.13;;;23.90;62.90;;;;;;5015449;28;20026;-52
2021/06/20 09:39:56;;;;;;;8.25;5.72;;;24.30;62.90;;;;;;5015561;28;20496;-54
2021/06/20 09:42:21;;;;;;;8.05;5.18;;;24.00;62.70;;;;;;5015629;28;20114;-54
2021/06/20 09:44:50;;;;;;;10.25;6.00;;;23.80;62.50;;;;;;5015445;28;20111;-52
2021/06/20 09:47:21;;;;;;;9.55;5.65;;;24.00;62.60;;;;;;5015301;28;20029;-53
2021/06/20 09:49:49;;;;;;;8.82;5.80;;;24.00;62.50;;;;;;5015757;28;20504;-54
2021/06/20 09:52:35;;;;;;;8.90;6.32;;;24.00;62.50;;;;;;5015008;28;20018;-54
2021/06/20 09:55:08;;;;;;;10.35;5.95;;;24.10;62.60;;;;;;5015234;28;20033;-53
2021/06/20 09:57:42;;;;;;;8.85;6.05;;;24.00;62.30;;;;;;5013905;28;20022;-54
2021/06/20 10:00:08;;;;;;;9.32;6.57;;;24.00;62.20;;;;;;5015429;28;20033;-53
2021/06/20 10:02:36;;;;;;;8.82;6.43;;;24.10;62.30;;;;;;5014933;28;20018;-54
2021/06/20 10:05:02;;;;;;;8.88;5.90;;;24.10;62.20;;;;;;5015090;28;20061;-53
2021/06/20 10:07:28;;;;;;;9.95;6.30;;;24.10;62.10;;;;;;5015087;28;20022;-53
2021/06/20 10:09:56;;;;;;;9.32;6.05;;;24.10;61.90;;;;;;5015097;28;20068;-55
2021/06/20 10:12:23;;;;;;;7.78;6.03;;;24.00;61.80;;;;;;5013660;28;20045;-55
2021/06/20 10:14:51;;;;;;;8.50;6.03;;;24.30;61.90;;;;;;5015046;28;20068;-53
2021/06/20 10:17:28;;;;;;;8.75;5.60;;;24.00;61.70;;;;;;5014826;28;20054;-53
2021/06/20 10:19:56;;;;;;;9.18;5.68;;;24.20;61.70;;;;;;5015021;28;20045;-54
2021/06/20 10:22:22;;;;;;;10.27;5.93;;;24.10;61.60;;;;;;5014606;28;20030;-54
2021/06/20 10:24:52;;;;;;;9.27;5.30;;;24.20;61.70;;;;;;5013091;28;20453;-55
2021/06/20 10:27:28;;;;;;;6.95;5.20;;;24.40;61.70;;;;;;5014962;28;20433;-56
2021/06/20 10:29:57;;;;;;;6.90;5.10;;;24.20;61.50;;;;;;5014783;28;20058;-54
2021/06/20 10:32:24;;;;;;;6.50;4.90;;;24.20;61.50;;;;;;5014340;28;20083;-54
2021/06/20 10:34:59;;;;;;;6.03;4.85;;;24.20;61.30;;;;;;5013096;28;20481;-52
2021/06/20 10:37:32;;;;;;;7.32;4.72;;;24.20;61.20;;;;;;5014548;28;20018;-54
2021/06/20 10:40:00;;;;;;;5.03;4.30;;;24.00;61.20;;;;;;5014382;28;20029;-51
2021/06/20 10:42:37;;;;;;;4.53;4.10;;;24.40;61.50;;;;;;5014309;28;20548;-52
2021/06/20 10:45:05;;;;;;;5.22;3.72;;;24.40;61.40;;;;;;5014068;28;20029;-55
2021/06/20 10:47:39;;;;;;;5.35;3.85;;;24.20;61.20;;;;;;5012623;28;20022;-55
2021/06/20 10:50:10;;;;;;;6.00;4.00;;;24.00;61.00;;;;;;5014234;28;20381;-55
2021/06/20 10:52:38;;;;;;;5.03;3.63;;;24.30;61.10;;;;;;5013913;28;20022;-53
2021/06/20 10:55:05;;;;;;;2.85;2.60;;;24.30;61.00;;;;;;5014051;28;20033;-53
2021/06/20 10:57:31;;;;;;;4.03;3.20;;;24.30;60.90;;;;;;5013803;28;20022;-54
2021/06/20 10:59:57;;;;;;;4.70;3.05;;;24.10;60.70;;;;;;5013965;28;20028;-55
2021/06/20 11:02:35;;;;;;;3.72;3.00;;;24.60;60.90;;;;;;5014018;28;20029;-54
2021/06/20 11:05:01;;;;;;;2.85;2.65;;;24.40;60.70;;;;;;5013186;28;20050;-54
2021/06/20 11:07:28;;;;;;;3.03;2.67;;;24.30;60.50;;;;;;5013738;28;20080;-54
2021/06/20 11:09:56;;;;;;;3.25;2.90;;;24.40;60.50;;;;;;5013432;28;20029;-54
2021/06/20 11:12:22;;;;;;;3.97;2.85;;;24.40;60.50;;;;;;5013934;28;20025;-53
2021/06/20 11:14:50;;;;;;;3.58;2.60;;;24.50;60.50;;;;;;5013470;28;20025;-53
2021/06/20 11:17:17;;;;;;;3.13;2.53;;;24.50;60.50;;;;;;5013368;28;20096;-54
2021/06/20 11:19:44;;;;;;;2.90;2.50;;;24.50;60.40;;;;;;5013528;28;20010;-54
2021/06/20 11:22:12;;;;;;;2.72;2.53;;;24.50;60.30;;;;;;5013756;28;20022;-54
2021/06/20 11:24:38;;;;;;;2.35;2.15;;;24.50;60.40;;;;;;5013267;28;20113;-55
2021/06/20 11:27:07;;;;;;;2.90;2.60;;;24.50;60.30;;;;;;5013090;28;20518;-53
2021/06/20 11:29:50;;;;;;;2.80;2.60;;;24.50;60.30;;;;;;5012247;28;20367;-54
2021/06/20 11:32:29;;;;;;;2.40;2.20;;;24.50;60.30;;;;;;5013595;28;20049;-55
2021/06/20 11:35:15;;;;;;;2.85;2.55;;;24.30;60.30;;;;;;5013077;28;20072;-54
2021/06/20 11:37:55;;;;;;;2.88;2.30;;;24.60;60.40;;;;;;5013331;28;20026;-53
2021/06/20 11:40:23;;;;;;;7.93;2.53;;;24.50;60.30;;;;;;5013447;28;20026;-49
2021/06/20 11:42:51;;;;;;;3.47;2.35;;;24.80;60.50;;;;;;5013310;28;20025;-49
2021/06/20 11:45:28;;;;;;;3.45;2.60;;;24.60;60.30;;;;;;5013257;28;20025;-47
2021/06/20 11:47:57;;;;;;;2.40;2.20;;;24.60;60.40;;;;;;5013227;28;20032;-47
2021/06/20 11:50:33;;;;;;;2.90;2.47;;;24.60;60.50;;;;;;5013128;28;20476;-48
2021/06/20 11:53:03;;;;;;;5.68;2.65;;;24.70;60.50;;;;;;5012861;28;20503;-57
2021/06/20 11:55:40;;;;;;;4.80;3.45;;;24.70;60.40;;;;;;5013109;28;20518;-48
2021/06/20 11:58:08;;;;;;;4.53;3.03;;;24.60;60.20;;;;;;5011460;28;20026;-53
2021/06/20 12:00:35;;;;;;;7.55;3.70;;;24.70;60.00;;;;;;5013088;28;20381;-46
2021/06/20 12:03:02;;;;;;;5.20;3.38;;;24.70;59.80;;;;;;5012974;28;20022;-44
2021/06/20 12:05:28;;;;;;;5.55;3.40;;;24.50;59.80;;;;;;5012512;28;20089;-48
2021/06/20 12:08:05;;;;;;;5.72;3.75;;;25.10;60.30;;;;;;5012630;28;20018;-53
2021/06/20 12:10:32;;;;;;;5.38;4.65;;;24.80;59.40;;;;;;5012687;28;20026;-48
2021/06/20 12:13:02;;;;;;;10.07;4.20;;;24.80;59.10;;;;;;5013059;28;20033;-49
2021/06/20 12:15:29;;;;;;;9.05;5.25;;;24.80;58.50;;;;;;5012911;28;20034;-52
2021/06/20 12:17:55;;;;;;;9.02;5.20;;;24.90;58.30;;;;;;5016724;28;20022;-52
2021/06/20 12:20:30;;;;;;;8.18;4.90;;;25.00;58.20;;;;;;5017123;28;20516;-50
2021/06/20 12:22:56;;;;;;;11.38;5.25;;;25.00;57.90;;;;;;5016875;28;20500;-47
2021/06/20 12:25:22;;;;;;;7.43;5.82;;;25.10;57.90;;;;;;5016965;28;20044;-46
2021/06/20 12:27:48;;;;;;;13.00;6.30;;;25.10;57.30;;;;;;5017089;28;20473;-48
2021/06/20 12:30:24;;;;;;;9.40;6.93;;;25.30;57.60;;;;;;5016762;28;20412;-47
2021/06/20 12:32:50;;;;;;;7.57;6.45;;;25.30;57.30;;;;;;5017129;28;20026;-47
2021/06/20 12:35:27;;;;;;;9.77;7.10;;;25.30;57.10;;;;;;5016664;28;20042;-48
2021/06/20 12:37:55;;;;;;;10.05;7.25;;;25.40;57.20;;;;;;5016745;28;20022;-48
2021/06/20 12:40:25;;;;;;;11.95;7.28;;;25.40;57.10;;;;;;5016836;28;20022;-48
2021/06/20 12:42:58;;;;;;;8.38;7.45;;;25.40;57.50;;;;;;5016685;28;20129;-48
2021/06/20 12:45:27;;;;;;;7.72;6.88;;;25.70;56.70;;;;;;5016808;28;20022;-48
2021/06/20 12:47:55;;;;;;;9.03;7.07;;;25.50;56.20;;;;;;5016524;28;20487;-49
2021/06/20 12:50:28;;;;;;;7.65;6.88;;;25.50;56.10;;;;;;5016774;28;20048;-49